Time;durP1;ratioP1;P1;durP2;ratioP2;P2;SDS_P1;SDS_P2;PMS_P1;PMS_P2;Temp;Humidity;BMP_temperature;BMP_pressure;BME280_temperature;BME280_humidity;BME280_pressure;Samples;Min_cycle;Max_cycle;Signal;HPM_P1;HPM_P2
2021/12/02 00:00:59;;;;;;;58.85;5.25;;;26.80;21.40;;;;;;5055206;28;20077;-63
2021/12/02 00:03:26;;;;;;;36.40;2.72;;;26.60;22.10;;;;;;5055745;28;20122;-64
2021/12/02 00:05:53;;;;;;;31.95;2.55;;;26.50;22.70;;;;;;5056050;28;20093;-65
2021/12/02 00:08:20;;;;;;;21.70;3.05;;;26.30;23.40;;;;;;5055406;28;20179;-63
2021/12/02 00:10:46;;;;;;;20.08;2.65;;;26.20;24.10;;;;;;5072189;28;20439;-62
2021/12/02 00:13:13;;;;;;;19.15;3.42;;;26.10;24.50;;;;;;5055015;28;20073;-65
2021/12/02 00:15:53;;;;;;;32.00;4.13;;;25.90;24.90;;;;;;5054781;28;20076;-66
2021/12/02 00:21:04;;;;;;;32.30;3.67;;;25.50;26.40;;;;;;5072187;28;20069;-67
2021/12/02 00:23:52;;;;;;;36.03;3.95;;;25.40;27.10;;;;;;5063999;28;20072;-62
2021/12/02 00:26:20;;;;;;;22.55;4.18;;;25.20;27.80;;;;;;5078389;28;20130;-64
2021/12/02 00:28:53;;;;;;;35.30;4.10;;;25.00;28.20;;;;;;5071013;28;20480;-64
2021/12/02 00:31:23;;;;;;;57.05;5.57;;;24.80;28.80;;;;;;5056511;28;20138;-62
2021/12/02 00:33:54;;;;;;;93.78;7.13;;;24.70;29.20;;;;;;5055829;28;20131;-66
2021/12/02 00:36:26;;;;;;;86.97;8.20;;;24.50;29.50;;;;;;5071571;28;20077;-62
2021/12/02 00:38:54;;;;;;;58.03;6.80;;;24.30;29.80;;;;;;5071168;28;20096;-65
2021/12/02 00:41:25;;;;;;;78.47;7.57;;;24.20;30.00;;;;;;5052941;28;20136;-64
2021/12/02 00:43:53;;;;;;;136.63;13.50;;;24.00;30.30;;;;;;5054130;28;20070;-63
2021/12/02 00:46:22;;;;;;;202.63;19.85;;;23.80;31.20;;;;;;5038640;28;20104;-63
2021/12/02 00:48:50;;;;;;;205.23;21.90;;;23.60;30.90;;;;;;5058273;28;20442;-63
2021/12/02 00:51:19;;;;;;;188.63;20.55;;;23.60;31.20;;;;;;5036368;28;20105;-61
2021/12/02 00:53:52;;;;;;;197.57;21.10;;;23.40;31.20;;;;;;5071249;28;20113;-64
2021/12/02 00:56:24;;;;;;;182.98;20.52;;;23.30;31.60;;;;;;5038615;28;20554;-64
2021/12/02 00:58:52;;;;;;;144.15;18.05;;;23.20;31.80;;;;;;5037152;28;20115;-63
2021/12/02 01:01:21;;;;;;;188.73;17.67;;;23.10;32.00;;;;;;5054907;28;20100;-64
2021/12/02 01:03:54;;;;;;;121.20;16.13;;;23.00;32.30;;;;;;5071198;28;20081;-62
2021/12/02 01:06:21;;;;;;;128.40;16.88;;;22.90;32.40;;;;;;5089060;28;20095;-63
2021/12/02 01:08:48;;;;;;;129.45;16.80;;;22.80;32.20;;;;;;5055843;28;20083;-64
2021/12/02 01:11:17;;;;;;;133.55;15.35;;;22.70;32.30;;;;;;5055181;28;20077;-63
2021/12/02 01:13:44;;;;;;;129.90;17.83;;;22.60;32.20;;;;;;5069861;28;20074;-62
2021/12/02 01:16:10;;;;;;;104.20;14.35;;;22.50;32.60;;;;;;5054500;28;20443;-61
2021/12/02 01:18:37;;;;;;;110.47;13.98;;;22.40;32.60;;;;;;5053014;28;20073;-63
2021/12/02 01:21:05;;;;;;;103.40;14.48;;;22.30;32.80;;;;;;5041561;28;20076;-66
2021/12/02 01:23:33;;;;;;;88.10;14.07;;;22.20;32.80;;;;;;5063744;28;20441;-65
2021/12/02 01:26:07;;;;;;;99.38;15.13;;;22.10;32.90;;;;;;5070545;28;20435;-65
2021/12/02 01:28:36;;;;;;;91.40;15.93;;;22.00;33.60;;;;;;5054031;28;20073;-62
2021/12/02 01:31:03;;;;;;;88.00;13.52;;;22.00;33.20;;;;;;5071160;28;20547;-65
2021/12/02 01:33:30;;;;;;;79.20;13.10;;;21.90;33.90;;;;;;5054660;28;20073;-63
2021/12/02 01:36:03;;;;;;;81.10;13.20;;;21.80;34.00;;;;;;5070858;28;20081;-63
2021/12/02 01:38:30;;;;;;;81.65;13.85;;;21.70;34.50;;;;;;5052083;28;20509;-66
2021/12/02 01:40:58;;;;;;;72.72;12.60;;;21.70;34.90;;;;;;5059962;28;20122;-66
2021/12/02 01:43:52;;;;;;;82.03;13.15;;;21.50;35.20;;;;;;5086373;28;20083;-65
2021/12/02 01:46:24;;;;;;;81.47;13.18;;;21.40;35.60;;;;;;5051749;28;20196;-63
2021/12/02 01:49:03;;;;;;;89.30;14.20;;;21.40;36.00;;;;;;5052810;28;20172;-62
2021/12/02 01:51:37;;;;;;;108.97;16.15;;;21.30;36.30;;;;;;5051493;28;20073;-63
2021/12/02 01:54:09;;;;;;;103.60;15.38;;;21.30;36.60;;;;;;5087414;28;20084;-62
2021/12/02 01:56:52;;;;;;;110.78;14.35;;;21.20;36.90;;;;;;5038763;28;20096;-64
2021/12/02 01:59:22;;;;;;;120.93;14.45;;;21.20;37.30;;;;;;5070209;28;20092;-62
2021/12/02 02:01:51;;;;;;;87.85;13.30;;;21.10;37.40;;;;;;5052023;28;20544;-64
2021/12/02 02:04:19;;;;;;;91.60;14.55;;;21.00;37.40;;;;;;5035529;28;20077;-65
2021/12/02 02:06:59;;;;;;;111.03;14.05;;;20.90;37.30;;;;;;5035896;28;20120;-63
2021/12/02 02:09:31;;;;;;;75.32;13.30;;;20.80;37.00;;;;;;5070077;28;20131;-64
2021/12/02 02:11:58;;;;;;;81.50;13.45;;;20.80;37.20;;;;;;5076220;28;20070;-64
2021/12/02 02:14:26;;;;;;;82.97;14.55;;;20.80;37.10;;;;;;5051747;28;20543;-64
2021/12/02 02:16:54;;;;;;;78.88;15.52;;;20.60;37.40;;;;;;5034680;28;20131;-62
2021/12/02 02:19:21;;;;;;;71.38;14.35;;;20.60;37.70;;;;;;5034881;28;20073;-63
2021/12/02 02:21:48;;;;;;;75.95;15.85;;;20.50;37.80;;;;;;5037177;28;20077;-64
2021/12/02 02:24:16;;;;;;;72.30;14.35;;;20.40;37.90;;;;;;5081495;28;20068;-63
2021/12/02 02:26:44;;;;;;;84.80;15.63;;;20.40;38.20;;;;;;5064944;28;20123;-64
2021/12/02 02:29:13;;;;;;;80.63;15.27;;;20.30;38.30;;;;;;5052098;28;20070;-63
2021/12/02 02:31:42;;;;;;;96.70;14.80;;;20.30;38.50;;;;;;5052849;28;20523;-62
2021/12/02 02:34:09;;;;;;;98.03;15.30;;;20.20;38.60;;;;;;5052694;28;20131;-66
2021/12/02 02:36:40;;;;;;;89.45;14.18;;;20.20;38.80;;;;;;5036115;28;20577;-65
2021/12/02 02:39:07;;;;;;;101.78;15.05;;;20.20;39.10;;;;;;5073887;28;20473;-63
2021/12/02 02:41:40;;;;;;;80.88;13.38;;;20.20;38.90;;;;;;5055700;28;20069;-64
2021/12/02 02:44:07;;;;;;;90.65;14.95;;;20.10;39.20;;;;;;5057235;28;20078;-63
2021/12/02 02:46:40;;;;;;;99.57;14.35;;;20.10;38.90;;;;;;5073746;28;20136;-63
2021/12/02 02:49:10;;;;;;;71.72;13.93;;;19.90;38.80;;;;;;5074011;28;20131;-63
2021/12/02 02:51:38;;;;;;;94.20;14.77;;;19.90;38.80;;;;;;5056362;28;20076;-64
2021/12/02 02:54:08;;;;;;;87.82;15.80;;;19.80;39.00;;;;;;5056958;28;20158;-65
2021/12/02 02:56:42;;;;;;;98.80;14.38;;;19.80;39.20;;;;;;5085260;28;20076;-62
2021/12/02 02:59:14;;;;;;;94.45;15.07;;;19.80;39.50;;;;;;5040026;28;20087;-63
2021/12/02 03:05:06;;;;;;;102.75;17.20;;;19.60;39.70;;;;;;4995903;28;20116;-64
2021/12/02 03:07:40;;;;;;;87.07;17.58;;;19.50;40.00;;;;;;5030664;28;20160;-64
2021/12/02 03:10:27;;;;;;;106.68;17.88;;;19.60;40.10;;;;;;5029804;28;20074;-62
2021/12/02 03:17:49;;;;;;;135.32;22.40;;;19.40;40.60;;;;;;4996840;28;20105;-65
2021/12/02 03:20:15;;;;;;;132.95;21.23;;;19.40;41.10;;;;;;4995121;28;20125;-63
2021/12/02 03:22:43;;;;;;;144.23;21.95;;;19.40;41.30;;;;;;4994821;28;20083;-63
2021/12/02 03:25:10;;;;;;;146.82;22.50;;;19.30;41.40;;;;;;5018589;28;20105;-61
2021/12/02 03:27:37;;;;;;;169.85;22.30;;;19.30;41.50;;;;;;5030718;28;20117;-64
2021/12/02 03:30:07;;;;;;;129.77;21.25;;;19.30;41.70;;;;;;5010267;28;20476;-65
2021/12/02 03:32:34;;;;;;;126.93;23.20;;;19.20;41.80;;;;;;4996516;28;20661;-65
2021/12/02 03:35:01;;;;;;;169.63;25.50;;;19.20;42.00;;;;;;5048921;28;20208;-65
2021/12/02 03:37:27;;;;;;;159.75;25.35;;;19.20;42.20;;;;;;5073644;28;20080;-62
2021/12/02 03:39:54;;;;;;;159.65;25.42;;;19.20;42.30;;;;;;5056450;28;20424;-62
2021/12/02 03:42:20;;;;;;;146.32;24.65;;;19.10;42.30;;;;;;5072979;28;20109;-62
2021/12/02 03:44:47;;;;;;;199.13;27.00;;;19.00;42.30;;;;;;5039396;28;20431;-62
2021/12/02 03:47:13;;;;;;;;;;;19.00;42.00;;;;;;5056581;28;20069;-62
2021/12/02 03:49:41;;;;;;;177.93;31.13;;;18.90;42.10;;;;;;5070131;28;20015;-64
2021/12/02 03:52:07;;;;;;;134.57;27.42;;;18.90;42.50;;;;;;5056600;28;20451;-63
2021/12/02 03:54:34;;;;;;;166.20;29.52;;;18.90;42.70;;;;;;5053954;28;20069;-62
2021/12/02 03:57:00;;;;;;;201.18;29.85;;;18.90;42.60;;;;;;5039263;28;20154;-62
2021/12/02 03:59:27;;;;;;;170.40;31.60;;;18.90;42.30;;;;;;5056367;28;20076;-63
2021/12/02 04:01:53;;;;;;;;;;;18.90;42.50;;;;;;5072866;28;20078;-64
2021/12/02 04:04:19;;;;;;;201.60;32.72;;;18.90;42.40;;;;;;5038842;28;20375;-64
2021/12/02 04:06:46;;;;;;;170.20;33.35;;;18.90;42.50;;;;;;5047412;28;20081;-64
2021/12/02 04:09:16;;;;;;;192.43;33.90;;;18.90;42.30;;;;;;5087138;28;20179;-63
2021/12/02 04:11:51;;;;;;;175.55;32.67;;;18.90;42.50;;;;;;5054686;28;20105;-63
2021/12/02 04:16:57;;;;;;;;;;;18.80;42.50;;;;;;5055880;28;20127;-63
2021/12/02 04:19:24;;;;;;;165.05;37.63;;;18.70;42.00;;;;;;5055013;28;19960;-64
2021/12/02 04:21:52;;;;;;;165.88;36.50;;;18.70;42.00;;;;;;5038729;28;20083;-64
2021/12/02 04:24:18;;;;;;;176.70;37.05;;;18.60;42.30;;;;;;5071327;28;20081;-64
2021/12/02 04:26:45;;;;;;;173.25;36.38;;;18.60;42.60;;;;;;5072360;28;20096;-64
2021/12/02 04:29:12;;;;;;;196.38;39.55;;;18.60;42.70;;;;;;5071838;28;20152;-64
2021/12/02 04:31:43;;;;;;;148.77;34.47;;;18.50;42.50;;;;;;5039267;28;20073;-62
2021/12/02 04:34:11;;;;;;;163.50;35.45;;;18.50;42.80;;;;;;5053814;28;20073;-63
2021/12/02 04:36:38;;;;;;;173.88;34.92;;;18.50;42.70;;;;;;5036291;28;20080;-62
2021/12/02 04:39:05;;;;;;;170.73;34.85;;;18.40;42.80;;;;;;5055304;28;20089;-63
2021/12/02 04:41:32;;;;;;;172.85;36.53;;;18.30;42.90;;;;;;5071811;28;20080;-62
2021/12/02 04:43:58;;;;;;;158.05;33.80;;;18.40;43.30;;;;;;5038305;28;20074;-63
2021/12/02 04:46:25;;;;;;;160.38;34.30;;;18.30;43.50;;;;;;5036582;28;20466;-62
2021/12/02 04:48:51;;;;;;;184.23;35.38;;;18.40;43.50;;;;;;5055394;28;20073;-63
2021/12/02 04:51:17;;;;;;;;;;;18.30;43.70;;;;;;5038288;28;20104;-63
2021/12/02 04:53:44;;;;;;;160.10;35.67;;;18.20;43.80;;;;;;5069914;28;19984;-61
2021/12/02 04:56:10;;;;;;;154.15;35.97;;;18.20;44.00;;;;;;5054039;28;20095;-62
2021/12/02 04:58:36;;;;;;;;;;;18.10;43.80;;;;;;5038805;28;20103;-64
2021/12/02 05:01:03;;;;;;;168.75;37.22;;;18.10;44.10;;;;;;5038655;28;20000;-63
2021/12/02 05:03:30;;;;;;;172.63;34.55;;;18.00;44.30;;;;;;5055971;28;20078;-61
2021/12/02 05:05:56;;;;;;;201.73;37.15;;;18.00;44.60;;;;;;5036493;28;20089;-63
2021/12/02 05:08:22;;;;;;;;;;;18.10;44.90;;;;;;5053262;28;20070;-63
2021/12/02 05:10:48;;;;;;;162.95;34.53;;;18.10;44.80;;;;;;5054417;28;19965;-62
2021/12/02 05:13:15;;;;;;;150.98;33.78;;;18.10;44.70;;;;;;5053906;28;20135;-62
2021/12/02 05:15:41;;;;;;;139.38;31.90;;;18.10;44.90;;;;;;5070070;28;20523;-64
2021/12/02 05:18:07;;;;;;;;;;;18.00;44.40;;;;;;5071399;28;20434;-64
2021/12/02 05:20:34;;;;;;;181.02;36.42;;;17.90;44.50;;;;;;5070783;28;19973;-63
2021/12/02 05:23:00;;;;;;;;;;;17.80;44.90;;;;;;5055471;28;20069;-65
2021/12/02 05:25:26;;;;;;;171.95;36.17;;;17.90;45.10;;;;;;5080761;28;19973;-62
2021/12/02 05:27:52;;;;;;;;;;;17.90;45.00;;;;;;5071384;28;20073;-64
2021/12/02 05:30:18;;;;;;;128.07;34.33;;;17.80;45.10;;;;;;5069913;28;19961;-66
2021/12/02 05:32:45;;;;;;;;;;;17.80;45.00;;;;;;5052686;28;20073;-62
2021/12/02 05:35:11;;;;;;;153.02;33.67;;;17.70;45.00;;;;;;5069537;28;19993;-62
2021/12/02 05:37:37;;;;;;;122.07;35.33;;;17.70;44.80;;;;;;5054290;28;20112;-64
2021/12/02 05:40:05;;;;;;;165.52;37.70;;;17.70;44.50;;;;;;5054506;28;20073;-62
2021/12/02 05:42:31;;;;;;;157.57;38.42;;;17.70;44.30;;;;;;5052565;28;20081;-62
2021/12/02 05:44:57;;;;;;;149.18;35.33;;;17.70;45.00;;;;;;5053223;28;20438;-63
2021/12/02 05:47:24;;;;;;;146.98;36.78;;;17.60;44.90;;;;;;5054207;28;20306;-62
2021/12/02 05:49:50;;;;;;;124.97;32.55;;;17.60;44.70;;;;;;5052927;28;20085;-64
2021/12/02 05:52:17;;;;;;;162.50;36.30;;;17.60;44.70;;;;;;5051278;28;20114;-62
2021/12/02 05:54:43;;;;;;;154.43;33.20;;;17.60;44.70;;;;;;5036547;28;20464;-63
2021/12/02 05:57:09;;;;;;;;;;;17.50;44.50;;;;;;5053885;28;20112;-64
2021/12/02 05:59:36;;;;;;;150.25;34.65;;;17.50;44.80;;;;;;5069050;28;20004;-64
2021/12/02 06:02:02;;;;;;;;;;;17.40;45.10;;;;;;5070547;28;20089;-64
2021/12/02 06:04:28;;;;;;;173.73;34.42;;;17.40;45.30;;;;;;5069434;28;20472;-64
2021/12/02 06:06:55;;;;;;;165.10;35.15;;;17.40;45.60;;;;;;5070146;28;20088;-64
2021/12/02 06:09:21;;;;;;;;;;;17.50;45.70;;;;;;5051615;28;20437;-64
2021/12/02 06:11:47;;;;;;;150.18;36.70;;;17.50;45.70;;;;;;5069617;28;19979;-65
2021/12/02 06:14:14;;;;;;;149.32;37.53;;;17.40;45.60;;;;;;5053101;28;20519;-63
2021/12/02 06:16:41;;;;;;;136.05;36.53;;;17.40;45.40;;;;;;5069229;28;20077;-63
2021/12/02 06:19:08;;;;;;;151.40;35.38;;;17.40;45.10;;;;;;5069714;28;20143;-64
2021/12/02 06:21:34;;;;;;;;;;;17.40;45.00;;;;;;5051990;28;20082;-63
2021/12/02 06:24:03;;;;;;;134.07;35.83;;;17.50;45.00;;;;;;5060892;28;20047;-64
2021/12/02 06:26:30;;;;;;;176.50;37.03;;;17.50;45.30;;;;;;5069927;28;20126;-62
2021/12/02 06:28:56;;;;;;;;;;;17.40;45.40;;;;;;5051764;28;20184;-63
2021/12/02 06:31:24;;;;;;;166.27;36.28;;;17.40;45.20;;;;;;5070257;28;20462;-62
2021/12/02 06:33:50;;;;;;;150.93;33.65;;;17.40;45.50;;;;;;5052648;28;20080;-62
2021/12/02 06:36:17;;;;;;;150.18;36.08;;;17.30;44.70;;;;;;5036894;28;20412;-64
2021/12/02 06:38:43;;;;;;;132.25;33.58;;;17.30;44.90;;;;;;5053513;28;20093;-63
2021/12/02 06:41:09;;;;;;;;;;;17.30;44.90;;;;;;5054082;28;20072;-62
2021/12/02 06:43:35;;;;;;;115.40;31.48;;;17.20;45.00;;;;;;5068277;28;19957;-61
2021/12/02 06:46:01;;;;;;;;;;;17.20;45.10;;;;;;5053224;28;20164;-61
2021/12/02 06:48:28;;;;;;;124.32;31.88;;;17.20;46.40;;;;;;5068671;28;19957;-62
2021/12/02 06:50:54;;;;;;;;;;;17.20;46.70;;;;;;5050847;28;20548;-59
2021/12/02 06:53:20;;;;;;;122.13;29.90;;;17.20;46.40;;;;;;5069561;28;20098;-62
2021/12/02 06:55:46;;;;;;;;;;;17.20;46.20;;;;;;5070314;28;21080;-63
2021/12/02 06:58:13;;;;;;;119.95;29.92;;;17.20;46.20;;;;;;5069538;28;19970;-61
2021/12/02 07:00:39;;;;;;;;;;;17.20;46.00;;;;;;5053311;28;20085;-62
2021/12/02 07:03:05;;;;;;;136.23;30.42;;;17.20;45.90;;;;;;5053113;28;19960;-58
2021/12/02 07:05:33;;;;;;;107.15;28.35;;;17.20;46.10;;;;;;5053016;28;20096;-64
2021/12/02 07:08:01;;;;;;;115.95;29.67;;;17.20;47.60;;;;;;5052140;28;20116;-63
2021/12/02 07:10:29;;;;;;;119.32;28.27;;;17.20;47.20;;;;;;5068566;28;20061;-63
2021/12/02 07:12:57;;;;;;;119.97;28.70;;;17.10;46.80;;;;;;5051280;28;20409;-64
2021/12/02 07:15:29;;;;;;;119.13;29.08;;;17.10;46.70;;;;;;5050703;28;20168;-64
2021/12/02 07:17:57;;;;;;;94.13;27.67;;;17.20;47.70;;;;;;5037709;28;20086;-64
2021/12/02 07:20:26;;;;;;;123.93;31.38;;;17.10;47.40;;;;;;5066073;28;20126;-64
2021/12/02 07:22:53;;;;;;;120.65;34.47;;;17.10;46.60;;;;;;5077719;28;20112;-63
2021/12/02 07:25:19;;;;;;;;;;;17.10;46.00;;;;;;5089386;28;20096;-64
2021/12/02 07:27:47;;;;;;;142.82;36.33;;;17.00;45.60;;;;;;5073212;28;20000;-64
2021/12/02 07:30:14;;;;;;;131.85;37.17;;;17.00;46.20;;;;;;5039609;28;20501;-64
2021/12/02 07:32:41;;;;;;;143.80;38.58;;;17.10;46.50;;;;;;5055914;28;20074;-66
2021/12/02 07:35:16;;;;;;;138.95;35.35;;;17.00;46.40;;;;;;5073742;28;20080;-64
2021/12/02 07:37:47;;;;;;;148.85;38.35;;;17.00;46.40;;;;;;5055533;28;20100;-65
2021/12/02 07:40:15;;;;;;;151.15;37.72;;;17.00;46.50;;;;;;5055915;28;20083;-65
2021/12/02 07:42:43;;;;;;;146.13;37.97;;;17.00;46.50;;;;;;5040171;28;20073;-64
2021/12/02 07:45:10;;;;;;;141.73;36.38;;;17.00;46.60;;;;;;5056430;28;20088;-65
2021/12/02 07:47:40;;;;;;;125.22;35.95;;;17.00;46.40;;;;;;5039279;28;20103;-63
2021/12/02 07:50:13;;;;;;;149.48;37.00;;;17.00;46.50;;;;;;5055534;28;20451;-65
2021/12/02 07:52:52;;;;;;;119.38;31.27;;;17.00;46.70;;;;;;5090336;28;20529;-64
2021/12/02 07:55:20;;;;;;;89.85;25.30;;;17.00;45.60;;;;;;5071970;28;20167;-64
2021/12/02 07:57:48;;;;;;;88.25;24.25;;;17.00;44.50;;;;;;5040231;28;20069;-66
2021/12/02 08:00:21;;;;;;;70.03;20.42;;;17.00;42.90;;;;;;5038577;28;20089;-65
2021/12/02 08:02:50;;;;;;;77.32;19.73;;;17.00;42.10;;;;;;5071965;28;20073;-65
2021/12/02 08:05:17;;;;;;;69.22;18.17;;;17.00;41.60;;;;;;5055164;28;20085;-65
2021/12/02 08:07:44;;;;;;;65.28;18.90;;;17.10;41.40;;;;;;5055796;28;20081;-64
2021/12/02 08:10:13;;;;;;;53.65;16.38;;;17.10;41.40;;;;;;5056520;28;20080;-65
2021/12/02 08:12:46;;;;;;;50.50;15.07;;;17.10;41.60;;;;;;5087470;28;20069;-63
2021/12/02 08:15:12;;;;;;;55.05;14.18;;;17.10;40.50;;;;;;5038686;28;20080;-63
2021/12/02 08:17:39;;;;;;;59.88;13.50;;;17.10;39.70;;;;;;5055256;28;20424;-65
2021/12/02 08:20:06;;;;;;;43.90;11.63;;;17.10;39.00;;;;;;5072272;28;20080;-63
2021/12/02 08:22:32;;;;;;;32.22;10.00;;;17.10;39.10;;;;;;5037903;28;20224;-64
2021/12/02 08:24:59;;;;;;;33.78;8.30;;;17.10;38.30;;;;;;5069794;28;20136;-65
2021/12/02 08:27:26;;;;;;;30.00;7.97;;;17.10;37.30;;;;;;5055470;28;20084;-65
2021/12/02 08:29:52;;;;;;;29.77;8.18;;;17.10;37.10;;;;;;5055543;28;20112;-63
2021/12/02 08:32:19;;;;;;;31.25;7.68;;;17.00;36.90;;;;;;5036697;28;20070;-63
2021/12/02 08:34:45;;;;;;;;;;;17.10;37.20;;;;;;5054812;28;20072;-65
2021/12/02 08:37:12;;;;;;;31.38;6.05;;;17.10;36.40;;;;;;5072213;28;19971;-63
2021/12/02 08:39:40;;;;;;;18.48;4.50;;;17.10;35.70;;;;;;5038987;28;20598;-66
2021/12/02 08:42:09;;;;;;;14.95;4.25;;;17.20;34.70;;;;;;5054951;28;20077;-63
2021/12/02 08:44:39;;;;;;;17.90;4.03;;;17.20;33.80;;;;;;5054060;28;20077;-63
2021/12/02 08:47:08;;;;;;;11.23;3.47;;;17.30;33.00;;;;;;5071876;28;20077;-63
2021/12/02 08:49:35;;;;;;;7.93;3.08;;;17.30;32.20;;;;;;5054732;28;20097;-63
2021/12/02 08:52:01;;;;;;;9.95;2.50;;;17.30;32.70;;;;;;5053089;28;20207;-65
2021/12/02 08:54:27;;;;;;;;;;;17.30;32.60;;;;;;5054592;28;20072;-65
2021/12/02 08:56:55;;;;;;;11.10;2.80;;;17.30;32.30;;;;;;5070034;28;19984;-63
2021/12/02 08:59:21;;;;;;;8.95;2.45;;;17.30;31.70;;;;;;5055539;28;20079;-66
2021/12/02 09:01:48;;;;;;;5.25;2.50;;;17.40;31.00;;;;;;5053186;28;20074;-65
2021/12/02 09:04:14;;;;;;;;;;;17.40;30.90;;;;;;5054885;28;20439;-64
2021/12/02 09:06:40;;;;;;;8.48;2.10;;;17.40;30.80;;;;;;5070803;28;20433;-66
2021/12/02 09:09:06;;;;;;;;;;;17.40;31.10;;;;;;5038817;28;20117;-64
2021/12/02 09:11:33;;;;;;;7.32;2.40;;;17.30;30.80;;;;;;5069521;28;20000;-65
2021/12/02 09:14:02;;;;;;;10.65;2.25;;;17.30;31.20;;;;;;5070993;28;20142;-65
2021/12/02 09:16:29;;;;;;;8.52;2.47;;;17.30;30.90;;;;;;5053799;28;20073;-66
2021/12/02 09:18:57;;;;;;;11.43;2.20;;;17.30;31.40;;;;;;5071067;28;20089;-65
2021/12/02 09:21:25;;;;;;;10.52;2.08;;;17.30;31.40;;;;;;5062962;28;20132;-66
2021/12/02 09:23:52;;;;;;;7.35;1.90;;;17.30;31.80;;;;;;5081795;28;20093;-65
2021/12/02 09:26:19;;;;;;;9.10;2.40;;;17.30;31.60;;;;;;5088583;28;20107;-65
2021/12/02 09:28:52;;;;;;;4.45;2.45;;;17.30;32.00;;;;;;5084963;28;20089;-66
2021/12/02 09:31:20;;;;;;;7.93;2.05;;;17.30;31.30;;;;;;5038054;28;20069;-65
2021/12/02 09:33:47;;;;;;;6.72;2.22;;;17.30;31.20;;;;;;5051972;28;20485;-65
2021/12/02 09:36:14;;;;;;;7.95;2.20;;;17.30;32.30;;;;;;5070805;28;20099;-64
2021/12/02 09:38:40;;;;;;;5.82;2.10;;;17.30;32.30;;;;;;5036363;28;20092;-65
2021/12/02 09:41:06;;;;;;;;;;;17.30;31.90;;;;;;5053946;28;20447;-66
2021/12/02 09:43:33;;;;;;;10.90;2.67;;;17.30;31.80;;;;;;5068855;28;20407;-64
2021/12/02 09:45:59;;;;;;;;;;;17.20;31.90;;;;;;5036758;28;20096;-66
2021/12/02 09:48:28;;;;;;;7.78;2.30;;;17.20;31.90;;;;;;5035870;28;20338;-64
2021/12/02 09:51:04;;;;;;;6.68;2.20;;;17.20;31.90;;;;;;5052004;28;20088;-64
2021/12/02 09:53:37;;;;;;;8.23;2.22;;;17.20;32.40;;;;;;5069002;28;20108;-65
2021/12/02 09:56:13;;;;;;;7.97;2.47;;;17.20;32.00;;;;;;5052966;28;20644;-65
2021/12/02 09:58:40;;;;;;;6.55;1.80;;;17.20;31.00;;;;;;5052884;28;20089;-64
2021/12/02 10:01:09;;;;;;;9.23;2.33;;;17.20;30.70;;;;;;5036454;28;20081;-66
2021/12/02 10:03:38;;;;;;;6.95;2.05;;;17.20;30.90;;;;;;5051334;28;20176;-64
2021/12/02 10:06:18;;;;;;;7.88;2.53;;;17.20;30.60;;;;;;5036607;28;20120;-67
2021/12/02 10:08:56;;;;;;;8.13;1.90;;;17.10;30.80;;;;;;5055155;28;20057;-67
2021/12/02 10:11:32;;;;;;;8.15;2.40;;;17.10;30.90;;;;;;5051950;28;20442;-66
2021/12/02 10:14:37;;;;;;;5.03;2.10;;;17.10;32.20;;;;;;5053876;28;20122;-67
2021/12/02 10:17:19;;;;;;;13.35;2.20;;;17.00;31.90;;;;;;5051911;28;20523;-65
2021/12/02 10:20:52;;;;;;;4.03;2.30;;;17.00;31.80;;;;;;5070374;28;20069;-64
2021/12/02 10:23:28;;;;;;;11.40;2.38;;;16.90;32.80;;;;;;5063267;28;20150;-67
2021/12/02 10:25:59;;;;;;;5.43;2.08;;;16.80;34.00;;;;;;5063262;28;20454;-66
2021/12/02 10:28:29;;;;;;;6.60;2.28;;;16.70;34.40;;;;;;5051169;28;20523;-65
2021/12/02 10:30:59;;;;;;;15.30;2.58;;;16.70;35.00;;;;;;5035080;28;20076;-67
2021/12/02 10:33:49;;;;;;;7.75;2.55;;;16.60;35.40;;;;;;5063196;28;20073;-68
2021/12/02 10:36:32;;;;;;;11.07;2.65;;;16.50;35.80;;;;;;5076882;28;20634;-65
2021/12/02 10:39:21;;;;;;;8.82;3.05;;;16.50;36.50;;;;;;5069749;28;20126;-67
2021/12/02 10:42:00;;;;;;;7.50;2.80;;;16.40;35.90;;;;;;5052427;28;20074;-67
2021/12/02 10:44:33;;;;;;;23.48;4.80;;;16.70;36.20;;;;;;5068871;28;20076;-67
2021/12/02 10:47:13;;;;;;;19.88;5.15;;;16.40;36.00;;;;;;5069688;28;20222;-67
2021/12/02 10:49:54;;;;;;;18.20;6.07;;;16.30;35.70;;;;;;5035754;28;20610;-65
2021/12/02 10:52:25;;;;;;;23.08;6.18;;;16.30;35.60;;;;;;5052188;28;20116;-65
2021/12/02 10:55:12;;;;;;;24.48;6.10;;;16.20;35.90;;;;;;5051887;28;20069;-65
2021/12/02 10:58:00;;;;;;;30.67;7.40;;;16.30;36.00;;;;;;5053318;28;20081;-66
2021/12/02 11:00:33;;;;;;;23.55;7.47;;;16.20;35.80;;;;;;5056658;28;20156;-65
2021/12/02 11:03:08;;;;;;;38.42;8.52;;;16.20;36.10;;;;;;5090827;28;20076;-67
2021/12/02 11:05:36;;;;;;;36.40;8.85;;;16.10;36.20;;;;;;5059333;28;20108;-66
2021/12/02 11:08:05;;;;;;;31.23;9.30;;;16.20;36.80;;;;;;5055028;28;20069;-66
2021/12/02 11:10:48;;;;;;;35.90;9.05;;;16.10;36.80;;;;;;5055472;28;20115;-66
2021/12/02 11:13:26;;;;;;;36.28;9.10;;;16.10;36.80;;;;;;5040356;28;20617;-65
2021/12/02 11:15:53;;;;;;;45.58;9.57;;;16.00;37.20;;;;;;5045925;28;20088;-65
2021/12/02 11:18:22;;;;;;;32.15;9.27;;;16.00;37.90;;;;;;5054576;28;20077;-67
2021/12/02 11:20:57;;;;;;;35.80;9.15;;;16.00;38.00;;;;;;5038178;28;20073;-66
2021/12/02 11:23:30;;;;;;;32.90;8.70;;;16.10;38.50;;;;;;5041803;28;20126;-66
2021/12/02 11:26:17;;;;;;;33.92;9.82;;;16.10;38.50;;;;;;5055790;28;20138;-67
2021/12/02 11:28:45;;;;;;;28.10;8.68;;;16.00;38.90;;;;;;5054571;28;20096;-65
2021/12/02 11:31:13;;;;;;;33.05;9.15;;;16.00;39.00;;;;;;5054787;28;20077;-65
2021/12/02 11:33:40;;;;;;;32.13;10.15;;;16.00;38.90;;;;;;5056097;28;20536;-67
2021/12/02 11:36:17;;;;;;;37.25;9.15;;;15.80;38.70;;;;;;5054836;28;20532;-65
2021/12/02 11:38:44;;;;;;;29.33;9.48;;;15.80;39.40;;;;;;5038447;28;20077;-65
2021/12/02 11:41:11;;;;;;;34.90;9.80;;;15.80;40.40;;;;;;5057858;28;20072;-66
2021/12/02 11:43:38;;;;;;;;;;;15.70;40.20;;;;;;5077477;28;20097;-67
2021/12/02 11:46:09;;;;;;;39.75;10.50;;;15.70;40.40;;;;;;5071619;28;20433;-66
2021/12/02 11:48:38;;;;;;;41.40;10.07;;;15.70;41.00;;;;;;5038948;28;20172;-66
2021/12/02 11:51:23;;;;;;;41.17;10.43;;;15.70;40.80;;;;;;5071538;28;20089;-68
2021/12/02 11:53:50;;;;;;;41.05;10.57;;;15.70;41.10;;;;;;5053296;28;20112;-66
2021/12/02 11:56:21;;;;;;;32.38;10.25;;;15.60;41.60;;;;;;5038568;28;20085;-66
2021/12/02 11:58:50;;;;;;;37.03;11.60;;;15.50;42.10;;;;;;5055819;28;20080;-66
2021/12/02 12:01:21;;;;;;;35.30;10.45;;;15.30;42.10;;;;;;5054361;28;20089;-67
2021/12/02 12:04:11;;;;;;;33.83;11.18;;;15.30;42.30;;;;;;5038553;28;20474;-68
2021/12/02 12:06:41;;;;;;;42.42;10.88;;;15.40;42.10;;;;;;5072712;28;20128;-67
2021/12/02 12:09:20;;;;;;;31.77;10.57;;;15.40;42.50;;;;;;5071211;28;20160;-69
2021/12/02 12:11:52;;;;;;;40.22;11.55;;;15.40;42.40;;;;;;5053182;28;20073;-66
2021/12/02 12:14:37;;;;;;;45.78;11.77;;;15.40;42.10;;;;;;5071008;28;20439;-65
2021/12/02 12:17:15;;;;;;;38.00;10.98;;;15.30;42.10;;;;;;5055841;28;20081;-66
2021/12/02 12:19:52;;;;;;;48.75;11.60;;;15.30;43.90;;;;;;5072079;28;20077;-66
2021/12/02 12:22:31;;;;;;;42.55;10.85;;;15.20;44.60;;;;;;5054018;28;20084;-65
2021/12/02 12:25:09;;;;;;;32.15;10.70;;;15.20;44.50;;;;;;5085995;28;20088;-66
2021/12/02 12:27:38;;;;;;;43.38;10.48;;;15.10;44.20;;;;;;5072026;28;20080;-66
2021/12/02 12:30:09;;;;;;;35.47;10.32;;;15.10;43.80;;;;;;5053077;28;20101;-66
2021/12/02 12:32:50;;;;;;;40.40;11.02;;;15.20;43.70;;;;;;5090721;28;20147;-66
2021/12/02 12:38:22;;;;;;;40.53;10.30;;;15.20;43.50;;;;;;5072265;28;20142;-65
2021/12/02 12:40:57;;;;;;;43.58;10.23;;;15.10;43.20;;;;;;5070907;28;20104;-66
2021/12/02 12:43:26;;;;;;;41.20;10.50;;;15.10;43.20;;;;;;5053969;28;20119;-66
2021/12/02 12:46:11;;;;;;;36.63;10.75;;;14.90;43.70;;;;;;5036255;28;20099;-66
2021/12/02 12:48:38;;;;;;;37.40;9.85;;;14.90;44.20;;;;;;5038328;28;20431;-67
2021/12/02 12:51:19;;;;;;;28.88;9.38;;;14.80;43.80;;;;;;5055148;28;20172;-65
2021/12/02 12:53:50;;;;;;;43.00;10.18;;;14.80;43.60;;;;;;5054104;28;20113;-66
2021/12/02 12:56:24;;;;;;;35.50;9.20;;;14.90;44.20;;;;;;5053448;28;20097;-67
2021/12/02 12:58:57;;;;;;;32.55;9.65;;;14.80;44.60;;;;;;5037194;28;20160;-66
2021/12/02 13:01:26;;;;;;;34.35;9.88;;;14.90;44.40;;;;;;5055268;28;20080;-67
2021/12/02 13:04:13;;;;;;;28.90;9.60;;;14.80;44.20;;;;;;5036145;28;20163;-67
2021/12/02 13:07:10;;;;;;;30.50;8.95;;;14.80;44.30;;;;;;5036256;28;20554;-68